createdAt,value
2022-10-13T00:01:29.729Z,12.47
2022-10-13T00:03:51.777Z,11.93
2022-10-13T00:06:21.225Z,12.47
2022-10-13T00:08:43.438Z,12.67
2022-10-13T00:11:26.950Z,12.70
2022-10-13T00:13:50.423Z,11.97
2022-10-13T00:16:15.500Z,13.00
2022-10-13T00:18:38.461Z,13.10
2022-10-13T00:21:00.280Z,13.37
2022-10-13T00:23:22.282Z,12.27
2022-10-13T00:25:47.887Z,12.63
2022-10-13T00:28:10.418Z,12.30
2022-10-13T00:30:36.039Z,12.37
2022-10-13T00:32:57.939Z,12.80
2022-10-13T00:35:19.768Z,12.90
2022-10-13T00:37:41.543Z,13.37
2022-10-13T00:40:04.334Z,13.47
2022-10-13T00:42:27.138Z,12.53
2022-10-13T00:45:00.255Z,13.17
2022-10-13T00:47:22.351Z,13.33
2022-10-13T00:49:44.508Z,14.00
2022-10-13T00:52:06.459Z,12.83
2022-10-13T00:54:29.710Z,12.70
2022-10-13T00:56:53.978Z,13.27
2022-10-13T00:59:23.506Z,11.63
2022-10-13T01:01:49.237Z,13.30
2022-10-13T01:04:11.658Z,14.03
2022-10-13T01:06:34.385Z,13.20
2022-10-13T01:08:56.226Z,13.57
2022-10-13T01:11:49.929Z,12.97
2022-10-13T01:14:31.612Z,13.15
2022-10-13T01:17:21.098Z,11.73
2022-10-13T01:20:28.915Z,12.27
2022-10-13T01:23:33.354Z,11.40
2022-10-13T01:26:23.140Z,11.73
2022-10-13T01:29:05.402Z,12.47
2022-10-13T01:31:46.070Z,12.07
2022-10-13T01:34:41.493Z,12.20
2022-10-13T01:37:53.378Z,12.13
2022-10-13T01:40:37.186Z,11.10
2022-10-13T01:43:10.793Z,11.83
2022-10-13T01:45:51.375Z,11.83
2022-10-13T01:48:15.822Z,12.37
2022-10-13T01:50:39.472Z,12.07
2022-10-13T01:53:05.284Z,11.27
2022-10-13T01:55:28.978Z,11.73
2022-10-13T01:57:50.739Z,11.90
2022-10-13T02:00:21.113Z,12.87
2022-10-13T02:03:31.211Z,12.53
2022-10-13T02:06:10.530Z,12.50
2022-10-13T02:08:46.335Z,12.07
2022-10-13T02:11:19.721Z,11.43
2022-10-13T02:14:03.464Z,11.87
2022-10-13T02:16:31.924Z,11.17
2022-10-13T02:18:57.004Z,11.60
2022-10-13T02:21:19.262Z,11.83
2022-10-13T02:23:43.376Z,12.33
2022-10-13T02:26:05.662Z,12.80
2022-10-13T02:28:29.247Z,12.33
2022-10-13T02:30:51.783Z,11.95
2022-10-13T02:33:15.422Z,11.73
2022-10-13T02:35:37.395Z,12.25
2022-10-13T02:37:59.759Z,11.80
2022-10-13T02:40:21.568Z,11.73
2022-10-13T02:42:44.010Z,11.07
2022-10-13T02:45:07.058Z,11.43
2022-10-13T02:47:28.961Z,13.33
2022-10-13T02:49:50.714Z,11.83
2022-10-13T02:52:12.555Z,11.70
2022-10-13T02:54:36.869Z,11.25
2022-10-13T02:56:58.730Z,12.30
2022-10-13T02:59:20.464Z,11.00
2022-10-13T03:01:44.309Z,11.63
2022-10-13T03:04:06.097Z,11.48
2022-10-13T03:06:27.815Z,11.80
2022-10-13T03:08:49.596Z,11.47
2022-10-13T03:11:11.409Z,11.80
2022-10-13T03:13:33.551Z,11.27
2022-10-13T03:16:01.232Z,12.73
2022-10-13T03:18:23.065Z,11.77
2022-10-13T03:20:44.901Z,11.83
2022-10-13T03:23:07.105Z,11.23
2022-10-13T03:25:29.086Z,11.77
2022-10-13T03:27:51.855Z,12.00
2022-10-13T03:30:14.007Z,11.47
2022-10-13T03:32:35.734Z,10.97
2022-10-13T03:34:57.498Z,11.57
2022-10-13T03:37:19.295Z,12.00
2022-10-13T03:39:41.226Z,11.80
2022-10-13T03:42:03.575Z,10.40
2022-10-13T03:44:25.736Z,10.60
2022-10-13T03:46:47.542Z,12.13
2022-10-13T03:49:11.504Z,11.97
2022-10-13T03:51:33.652Z,11.05
2022-10-13T03:53:55.450Z,11.17
2022-10-13T03:56:25.393Z,11.43
2022-10-13T03:58:47.362Z,11.13
2022-10-13T04:01:10.548Z,10.80
2022-10-13T04:03:35.138Z,12.43
2022-10-13T04:06:05.306Z,11.23
2022-10-13T04:08:27.868Z,11.87
2022-10-13T04:11:02.437Z,11.40
2022-10-13T04:13:24.278Z,11.30
2022-10-13T04:15:46.794Z,10.97
2022-10-13T04:18:10.729Z,12.03
2022-10-13T04:20:36.723Z,10.80
2022-10-13T04:22:58.516Z,12.20
2022-10-13T04:25:20.262Z,11.77
2022-10-13T04:27:42.109Z,11.23
2022-10-13T04:30:06.743Z,12.03
2022-10-13T04:32:28.484Z,11.63
2022-10-13T04:34:50.557Z,12.57
2022-10-13T04:37:12.613Z,11.67
2022-10-13T04:39:34.570Z,12.47
2022-10-13T04:41:56.375Z,11.40
2022-10-13T04:44:18.173Z,11.70
2022-10-13T04:46:39.984Z,10.97
2022-10-13T04:49:01.909Z,11.07
2022-10-13T04:51:27.346Z,11.20
2022-10-13T04:53:55.005Z,11.93
2022-10-13T04:56:18.263Z,12.13
2022-10-13T04:58:41.778Z,11.73
2022-10-13T05:01:07.846Z,11.90
2022-10-13T05:03:29.682Z,12.17
2022-10-13T05:05:52.724Z,12.60
2022-10-13T05:08:14.531Z,11.77
2022-10-13T05:10:36.419Z,11.83
2022-10-13T05:12:58.209Z,11.47
2022-10-13T05:15:20.196Z,11.73
2022-10-13T05:17:41.948Z,12.03
2022-10-13T05:20:04.468Z,12.33
2022-10-13T05:22:28.403Z,13.17
2022-10-13T05:24:50.217Z,12.73
2022-10-13T05:27:13.831Z,11.60
2022-10-13T05:29:37.066Z,13.48
2022-10-13T05:31:58.871Z,11.77
2022-10-13T05:34:20.643Z,12.17
2022-10-13T05:36:42.563Z,12.23
2022-10-13T05:39:09.654Z,12.20
2022-10-13T05:41:32.025Z,11.77
2022-10-13T05:43:58.998Z,12.23
2022-10-13T05:46:20.924Z,11.83
2022-10-13T05:48:42.907Z,12.47
2022-10-13T05:51:16.579Z,11.50
2022-10-13T05:53:50.251Z,12.17
2022-10-13T05:56:22.529Z,12.43
2022-10-13T05:58:50.458Z,12.73
2022-10-13T06:01:19.469Z,13.67
2022-10-13T06:03:44.946Z,13.33
2022-10-13T06:06:07.302Z,13.10
2022-10-13T06:08:30.252Z,13.10
2022-10-13T06:10:52.161Z,13.03
2022-10-13T06:13:14.751Z,13.50
2022-10-13T06:15:36.803Z,12.83
2022-10-13T06:17:59.115Z,12.63
2022-10-13T06:20:20.882Z,11.87
2022-10-13T06:22:42.667Z,12.73
2022-10-13T06:25:07.207Z,14.73
2022-10-13T06:29:52.334Z,12.30
2022-10-13T06:32:14.191Z,13.23
2022-10-13T06:34:36.021Z,14.07
2022-10-13T06:36:58.182Z,14.03
2022-10-13T06:39:20.175Z,12.73
2022-10-13T06:41:42.045Z,13.00
2022-10-13T06:44:04.142Z,12.63
2022-10-13T06:46:26.102Z,12.90
2022-10-13T06:48:52.244Z,13.47
2022-10-13T06:51:15.381Z,12.20
2022-10-13T06:53:37.881Z,12.97
2022-10-13T06:56:02.002Z,13.27
2022-10-13T06:58:23.817Z,13.27
2022-10-13T07:00:45.665Z,13.47
2022-10-13T07:03:08.583Z,14.03
2022-10-13T07:05:31.395Z,13.60
2022-10-13T07:07:56.526Z,13.87
2022-10-13T07:10:18.537Z,13.90
2022-10-13T07:12:41.040Z,12.60
2022-10-13T07:15:03.126Z,13.43
2022-10-13T07:17:25.073Z,13.77
2022-10-13T07:19:48.676Z,14.00
2022-10-13T07:22:10.508Z,13.33
2022-10-13T07:24:32.309Z,13.30
2022-10-13T07:26:54.080Z,12.90
2022-10-13T07:29:16.184Z,12.80
2022-10-13T07:31:38.135Z,12.90
2022-10-13T07:34:00.669Z,12.70
2022-10-13T07:36:23.633Z,13.57
2022-10-13T07:38:46.923Z,12.57
2022-10-13T07:41:11.948Z,13.73
2022-10-13T07:43:33.899Z,12.93
2022-10-13T07:46:01.838Z,13.47
2022-10-13T07:48:23.768Z,13.52
2022-10-13T07:50:45.736Z,14.40
2022-10-13T07:53:07.553Z,13.50
2022-10-13T07:55:29.466Z,14.33
2022-10-13T07:57:51.259Z,13.30
2022-10-13T08:00:13.586Z,13.07
2022-10-13T08:02:35.981Z,12.37
2022-10-13T08:04:59.178Z,12.67
2022-10-13T08:07:21.197Z,13.23
2022-10-13T08:09:44.980Z,13.68
2022-10-13T08:12:06.958Z,13.30
2022-10-13T08:14:30.848Z,13.10
2022-10-13T08:16:53.729Z,12.85
2022-10-13T08:19:22.157Z,13.87
2022-10-13T08:21:58.274Z,13.47
2022-10-13T08:24:24.405Z,14.33
2022-10-13T08:26:47.139Z,13.63
2022-10-13T08:29:21.387Z,13.80
2022-10-13T08:31:45.255Z,13.77
2022-10-13T08:34:08.239Z,13.00
2022-10-13T08:36:30.167Z,13.80
2022-10-13T08:38:53.511Z,12.73
2022-10-13T08:41:21.502Z,12.77
2022-10-13T08:44:47.535Z,12.90
2022-10-13T08:47:07.043Z,13.57
2022-10-13T08:49:30.907Z,13.77
2022-10-13T08:51:54.044Z,14.48
2022-10-13T08:54:20.702Z,13.13
2022-10-13T08:56:43.125Z,13.17
2022-10-13T08:59:06.802Z,12.40
2022-10-13T09:01:37.358Z,12.57
2022-10-13T09:04:26.903Z,12.20
2022-10-13T09:06:56.845Z,11.57
2022-10-13T09:09:19.083Z,12.27
2022-10-13T09:11:45.307Z,12.50
2022-10-13T09:14:20.588Z,12.00
2022-10-13T09:16:44.985Z,13.13
2022-10-13T09:19:20.419Z,13.02
2022-10-13T09:21:42.439Z,13.63
2022-10-13T09:24:15.257Z,12.73
2022-10-13T09:26:38.953Z,12.67
2022-10-13T09:29:10.504Z,15.43
2022-10-13T09:31:33.849Z,13.20
2022-10-13T09:34:03.352Z,12.80
2022-10-13T09:36:25.862Z,13.73
2022-10-13T09:39:16.381Z,11.95
2022-10-13T09:41:42.495Z,13.13
2022-10-13T09:44:16.703Z,13.77
2022-10-13T09:46:54.942Z,12.63
2022-10-13T09:49:37.674Z,13.37
2022-10-13T09:52:19.079Z,12.10
2022-10-13T09:54:46.957Z,12.23
2022-10-13T09:57:48.391Z,13.07
2022-10-13T10:00:28.697Z,12.40
2022-10-13T10:03:18.634Z,12.07
2022-10-13T10:05:46.329Z,12.23
2022-10-13T10:09:08.376Z,14.07
2022-10-13T10:11:49.277Z,11.97
2022-10-13T10:14:31.745Z,12.43
2022-10-13T10:17:15.127Z,12.50
2022-10-13T10:19:42.923Z,12.33
2022-10-13T10:22:26.267Z,11.50
2022-10-13T10:25:00.262Z,11.60
2022-10-13T10:27:38.919Z,12.27
2022-10-13T10:30:17.824Z,11.53
2022-10-13T10:33:11.113Z,12.03
2022-10-13T10:36:07.339Z,11.80
2022-10-13T10:38:45.650Z,11.97
2022-10-13T10:41:36.668Z,12.40
2022-10-13T10:44:10.966Z,11.40
2022-10-13T10:46:39.809Z,12.20
2022-10-13T10:49:19.914Z,12.10
2022-10-13T10:51:43.759Z,11.47
2022-10-13T10:54:30.327Z,13.20
2022-10-13T10:57:08.492Z,12.77
2022-10-13T10:59:49.981Z,13.43
2022-10-13T11:02:37.912Z,12.37
2022-10-13T11:05:05.286Z,13.30
2022-10-13T11:07:28.367Z,12.43
2022-10-13T11:09:50.688Z,12.00
2022-10-13T11:12:23.015Z,12.27
2022-10-13T11:14:54.393Z,13.83
2022-10-13T11:17:29.498Z,12.57
2022-10-13T11:19:51.515Z,12.93
2022-10-13T11:22:21.165Z,12.80
2022-10-13T11:24:47.834Z,12.77
2022-10-13T11:27:12.328Z,12.67
2022-10-13T11:30:01.796Z,12.68
2022-10-13T11:32:26.879Z,12.03
2022-10-13T11:35:08.018Z,12.93
2022-10-13T11:38:07.741Z,13.17
2022-10-13T11:40:58.231Z,13.23
2022-10-13T11:43:47.248Z,12.83
2022-10-13T11:46:24.724Z,11.60
2022-10-13T11:49:17.487Z,13.60
2022-10-13T11:52:13.050Z,12.13
2022-10-13T11:54:53.690Z,13.57
2022-10-13T11:57:25.350Z,12.90
2022-10-13T11:59:51.474Z,14.00
2022-10-13T12:02:19.399Z,13.67
2022-10-13T12:04:46.550Z,14.90
2022-10-13T12:07:14.372Z,13.67
2022-10-13T12:09:53.861Z,13.70
2022-10-13T12:12:20.914Z,14.33
2022-10-13T12:14:47.743Z,14.00
2022-10-13T12:17:27.011Z,14.03
2022-10-13T12:19:50.150Z,14.87
2022-10-13T12:22:13.913Z,14.27
2022-10-13T12:24:37.152Z,14.13
2022-10-13T12:27:09.747Z,12.67
2022-10-13T12:29:37.056Z,12.90
2022-10-13T12:31:59.843Z,14.13
2022-10-13T12:34:27.756Z,13.20
2022-10-13T12:37:01.525Z,13.27
2022-10-13T12:39:25.669Z,14.07
2022-10-13T12:41:49.408Z,13.48
2022-10-13T12:44:20.955Z,13.95
2022-10-13T12:46:59.079Z,13.23
2022-10-13T12:49:24.665Z,13.57
2022-10-13T12:51:51.218Z,13.27
2022-10-13T12:54:24.451Z,13.03
2022-10-13T12:56:46.903Z,13.07
2022-10-13T12:59:17.904Z,13.93
2022-10-13T13:01:42.735Z,11.90
2022-10-13T13:04:23.129Z,11.63
2022-10-13T13:07:04.732Z,12.60
2022-10-13T13:09:36.954Z,11.30
2022-10-13T13:12:06.879Z,16.00
2022-10-13T13:14:49.399Z,12.17
2022-10-13T13:17:23.514Z,12.90
2022-10-13T13:19:57.421Z,10.93
2022-10-13T13:22:20.194Z,12.90
2022-10-13T13:24:42.705Z,12.90
2022-10-13T13:27:36.406Z,13.60
2022-10-13T13:29:58.618Z,12.93
2022-10-13T13:32:24.218Z,12.50
2022-10-13T13:34:47.053Z,12.40
2022-10-13T13:37:18.305Z,12.82
2022-10-13T13:39:41.184Z,12.70
2022-10-13T13:42:03.361Z,11.87
2022-10-13T13:44:25.255Z,12.50
2022-10-13T13:46:47.125Z,13.27
2022-10-13T13:49:11.590Z,13.60
2022-10-13T13:51:33.615Z,12.90
2022-10-13T13:53:55.783Z,12.57
2022-10-13T13:56:20.583Z,13.67
2022-10-13T13:58:43.639Z,14.00
2022-10-13T14:01:08.426Z,13.43
2022-10-13T14:03:30.268Z,13.20
2022-10-13T14:05:52.203Z,12.77
2022-10-13T14:08:14.042Z,13.17
2022-10-13T14:10:35.868Z,13.83
2022-10-13T14:12:57.711Z,13.10
2022-10-13T14:15:23.383Z,13.50
2022-10-13T14:17:47.645Z,12.50
2022-10-13T14:20:10.750Z,13.60
2022-10-13T14:22:33.078Z,13.70
2022-10-13T14:24:55.128Z,13.70
2022-10-13T14:27:17.077Z,13.73
2022-10-13T14:29:39.046Z,13.27
2022-10-13T14:32:01.112Z,14.43
2022-10-13T14:34:23.077Z,13.80
2022-10-13T14:36:44.872Z,14.00
2022-10-13T14:39:07.092Z,13.90
2022-10-13T14:41:29.239Z,14.07
2022-10-13T14:43:55.703Z,14.17
2022-10-13T14:46:17.491Z,14.10
2022-10-13T14:48:39.541Z,14.77
2022-10-13T14:51:10.667Z,15.27
2022-10-13T14:53:35.533Z,15.17
2022-10-13T14:55:57.365Z,15.33
2022-10-13T14:58:19.307Z,14.13
2022-10-13T15:00:43.423Z,14.60
2022-10-13T15:03:05.170Z,13.90
2022-10-13T15:05:26.999Z,14.73
2022-10-13T15:07:48.864Z,14.03
2022-10-13T15:10:10.776Z,13.53
2022-10-13T15:12:32.885Z,12.47
2022-10-13T15:14:54.782Z,12.60
2022-10-13T15:17:16.657Z,13.33
2022-10-13T15:19:38.423Z,13.00
2022-10-13T15:22:00.861Z,13.80
2022-10-13T15:24:22.803Z,13.87
2022-10-13T15:29:09.524Z,12.57
2022-10-13T15:31:31.468Z,13.97
2022-10-13T15:33:54.156Z,13.47
2022-10-13T15:36:16.242Z,14.83
2022-10-13T15:38:38.249Z,13.57
2022-10-13T15:41:02.436Z,13.37
2022-10-13T15:43:24.207Z,13.65
2022-10-13T15:45:57.091Z,14.33
2022-10-13T15:48:19.064Z,13.37
2022-10-13T15:50:41.228Z,13.57
2022-10-13T15:53:03.279Z,13.20
2022-10-13T15:55:25.502Z,13.50
2022-10-13T15:57:47.498Z,17.00
2022-10-13T16:00:14.219Z,14.97
2022-10-13T16:02:36.419Z,14.93
2022-10-13T16:05:01.630Z,15.77
2022-10-13T16:07:23.542Z,16.47
2022-10-13T16:09:45.758Z,17.27
2022-10-13T16:12:07.720Z,16.40
2022-10-13T16:14:29.542Z,16.27
2022-10-13T16:16:53.417Z,16.20
2022-10-13T16:19:15.283Z,16.37
2022-10-13T16:21:37.837Z,16.80
2022-10-13T16:24:00.076Z,16.63
2022-10-13T16:26:22.305Z,16.83
2022-10-13T16:28:45.663Z,17.40
2022-10-13T16:31:14.472Z,16.73
2022-10-13T16:33:37.639Z,17.33
2022-10-13T16:36:10.493Z,16.20
2022-10-13T16:38:35.049Z,16.23
2022-10-13T16:40:56.966Z,16.02
2022-10-13T16:43:18.779Z,15.77
2022-10-13T16:46:02.946Z,16.43
2022-10-13T16:48:27.853Z,17.10
2022-10-13T16:50:50.882Z,16.83
2022-10-13T16:53:14.267Z,18.17
2022-10-13T16:55:40.290Z,15.97
2022-10-13T16:58:02.195Z,17.33
2022-10-13T17:00:24.068Z,17.67
2022-10-13T17:02:45.940Z,17.17
2022-10-13T17:05:07.995Z,16.73
2022-10-13T17:07:29.873Z,17.57
2022-10-13T17:09:51.849Z,17.00
2022-10-13T17:12:13.660Z,17.10
2022-10-13T17:14:35.536Z,18.10
2022-10-13T17:16:58.145Z,16.00
2022-10-13T17:19:20.233Z,17.33
2022-10-13T17:21:43.471Z,16.00
2022-10-13T17:24:05.692Z,17.07
2022-10-13T17:26:28.531Z,16.33
2022-10-13T17:28:50.747Z,17.27
2022-10-13T17:31:15.645Z,16.83
2022-10-13T17:33:39.489Z,17.00
2022-10-13T17:36:12.632Z,16.92
2022-10-13T17:38:35.270Z,17.53
2022-10-13T17:41:07.909Z,16.33
2022-10-13T17:43:34.555Z,17.50
2022-10-13T17:46:34.378Z,17.23
2022-10-13T17:48:51.162Z,16.80
2022-10-13T17:51:17.505Z,16.53
2022-10-13T17:53:41.966Z,16.97
2022-10-13T17:56:13.648Z,17.17
2022-10-13T17:58:37.529Z,16.83
2022-10-13T18:01:13.088Z,16.08
2022-10-13T18:03:37.472Z,17.73
2022-10-13T18:05:59.330Z,16.80
2022-10-13T18:08:21.339Z,17.60
2022-10-13T18:11:07.010Z,17.43
2022-10-13T18:13:25.209Z,17.57
2022-10-13T18:15:47.023Z,18.27
2022-10-13T18:18:10.991Z,18.70
2022-10-13T18:20:36.957Z,18.45
2022-10-13T18:22:59.575Z,16.70
2022-10-13T18:25:22.757Z,18.00
2022-10-13T18:27:44.514Z,18.47
2022-10-13T18:30:07.161Z,19.97
2022-10-13T18:32:31.206Z,20.33
2022-10-13T18:34:56.371Z,19.03
2022-10-13T18:37:18.325Z,19.73
2022-10-13T18:39:40.842Z,22.73
2022-10-13T18:42:02.648Z,20.50
2022-10-13T18:44:31.053Z,22.53
2022-10-13T18:46:54.993Z,21.80
2022-10-13T18:49:19.149Z,22.05
2022-10-13T18:51:41.590Z,21.48
2022-10-13T18:54:05.116Z,24.60
2022-10-13T18:56:30.428Z,25.10
2022-10-13T18:58:59.278Z,23.80
2022-10-13T19:01:24.232Z,24.53
2022-10-13T19:06:13.011Z,23.30
2022-10-13T19:08:37.347Z,26.43
2022-10-13T19:10:59.342Z,27.10
2022-10-13T19:13:21.196Z,26.17
2022-10-13T19:15:43.347Z,25.57
2022-10-13T19:18:06.284Z,26.23
2022-10-13T19:20:28.142Z,26.90
2022-10-13T19:22:53.558Z,26.40
2022-10-13T19:25:15.901Z,28.17
2022-10-13T19:27:37.796Z,26.30
2022-10-13T19:29:59.766Z,26.47
2022-10-13T19:32:21.667Z,26.23
2022-10-13T19:34:43.471Z,27.13
2022-10-13T19:37:07.430Z,27.38
2022-10-13T19:39:29.375Z,26.70
2022-10-13T19:41:56.345Z,29.37
2022-10-13T19:44:20.116Z,25.80
2022-10-13T19:46:46.866Z,26.33
2022-10-13T19:49:10.639Z,27.50
2022-10-13T19:51:37.401Z,27.20
2022-10-13T19:53:59.206Z,27.00
2022-10-13T19:56:34.139Z,27.47
2022-10-13T20:01:19.098Z,26.50
2022-10-13T20:03:41.085Z,26.40
2022-10-13T20:06:07.108Z,27.67
2022-10-13T20:08:33.395Z,27.40
2022-10-13T20:10:56.549Z,28.83
2022-10-13T20:13:18.329Z,30.23
2022-10-13T20:18:06.722Z,29.03
2022-10-13T20:20:28.859Z,27.40
2022-10-13T20:22:52.721Z,28.58
2022-10-13T20:25:15.931Z,28.83
2022-10-13T20:27:37.812Z,30.80
2022-10-13T20:29:59.914Z,28.73
2022-10-13T20:32:22.070Z,31.00
2022-10-13T20:34:44.558Z,30.17
2022-10-13T20:37:06.393Z,30.60
2022-10-13T20:39:28.227Z,31.13
2022-10-13T20:41:50.037Z,31.60
2022-10-13T20:44:12.292Z,30.87
2022-10-13T20:46:34.243Z,32.07
2022-10-13T20:49:13.081Z,32.07
2022-10-13T20:51:35.721Z,30.43
2022-10-13T20:53:57.952Z,31.30
2022-10-13T20:56:24.359Z,33.70
2022-10-13T20:58:47.518Z,31.87
2022-10-13T21:01:09.739Z,33.10
2022-10-13T21:03:31.611Z,33.37
2022-10-13T21:06:03.858Z,31.87
2022-10-13T21:08:25.654Z,30.47
2022-10-13T21:10:48.576Z,33.30
2022-10-13T21:13:15.365Z,33.17
2022-10-13T21:15:40.050Z,31.70
2022-10-13T21:18:01.827Z,31.43
2022-10-13T21:20:24.013Z,32.40
2022-10-13T21:22:45.880Z,31.27
2022-10-13T21:25:08.391Z,32.80
2022-10-13T21:27:30.200Z,32.00
2022-10-13T21:29:51.965Z,32.07
2022-10-13T21:32:13.852Z,34.03
2022-10-13T21:34:38.984Z,33.30
2022-10-13T21:37:00.749Z,34.00
2022-10-13T21:39:22.492Z,34.93
2022-10-13T21:41:44.383Z,34.13
2022-10-13T21:44:06.199Z,32.47
2022-10-13T21:46:32.970Z,35.00
2022-10-13T21:48:58.643Z,34.23
2022-10-13T21:51:29.266Z,33.70
2022-10-13T21:53:54.743Z,34.37
2022-10-13T21:56:17.318Z,34.13
2022-10-13T21:58:39.313Z,33.07
2022-10-13T22:01:03.839Z,35.03
2022-10-13T22:05:47.439Z,34.13
2022-10-13T22:08:09.229Z,34.37
2022-10-13T22:10:31.021Z,34.73
2022-10-13T22:12:52.768Z,34.87
2022-10-13T22:15:14.820Z,34.93
2022-10-13T22:17:36.595Z,34.13
2022-10-13T22:20:00.961Z,33.67
2022-10-13T22:22:25.357Z,33.37
2022-10-13T22:24:49.246Z,31.03
2022-10-13T22:27:11.046Z,31.20
2022-10-13T22:29:32.905Z,31.23
2022-10-13T22:32:00.017Z,29.83
2022-10-13T22:34:21.948Z,30.33
2022-10-13T22:36:45.215Z,33.00
2022-10-13T22:39:07.408Z,34.37
2022-10-13T22:41:29.703Z,32.33
2022-10-13T22:43:57.778Z,32.20
2022-10-13T22:46:23.345Z,33.93
2022-10-13T22:48:45.624Z,35.13
2022-10-13T22:51:10.183Z,40.47
2022-10-13T22:53:33.974Z,34.53
2022-10-13T22:55:56.056Z,33.45
2022-10-13T22:58:17.821Z,32.83
2022-10-13T23:00:40.293Z,34.17
2022-10-13T23:03:03.300Z,34.40
2022-10-13T23:05:25.189Z,34.27
2022-10-13T23:07:47.004Z,34.47
2022-10-13T23:10:09.499Z,37.60
2022-10-13T23:12:32.343Z,36.50
2022-10-13T23:14:54.165Z,35.37
2022-10-13T23:17:16.103Z,34.30
2022-10-13T23:19:37.970Z,32.40
2022-10-13T23:21:59.758Z,31.53
2022-10-13T23:24:21.762Z,30.57
2022-10-13T23:26:43.666Z,30.47
2022-10-13T23:29:05.661Z,31.37
2022-10-13T23:31:28.447Z,31.00
2022-10-13T23:33:51.342Z,32.43
2022-10-13T23:36:23.445Z,31.27
2022-10-13T23:38:45.970Z,30.30
2022-10-13T23:41:12.102Z,29.87
2022-10-13T23:43:35.773Z,31.40
2022-10-13T23:45:57.594Z,31.03
2022-10-13T23:48:19.369Z,28.90
2022-10-13T23:50:41.211Z,31.27
2022-10-13T23:53:04.385Z,30.93
2022-10-13T23:55:26.244Z,32.30
2022-10-13T23:57:48.221Z,30.23
